Lorraine — A8IZ3 — position and weather

sailwx.info

Track history (hours):
 
Tides and Currents Weather Stations Pressure Air Temp Water Temp Dewpoint Dewpoint Depression Visibility Wind Speed Wind Dir Waves Ship Positions

Lorraine

Last reported at 2015-Sep-01 04:05 UTC. Time now 2015-Sep-02 14:55 UTC.
Position N 24°15' E 119°04'.

Length 221 m; draft 9 m.

Type: Ship. MMSI: 636012905.

Date/timePositionNaut miles runAvg speedWind from/ knotsBaromVisibWave heightAir tempDewpointWater temp
2015-Sep-01 04:05N 24°15' E 119°04'2613.1
2015-Sep-01 02:04N 23°58' E 118°42'25813.1
2015-Aug-31 06:27N 22°08' E 114°29'1512.4
2015-Aug-31 05:17N 22°08' E 114°13'1112.3
2015-Aug-31 04:25N 22°16' E 114°06'4 4.7
2015-Aug-31 03:29N 22°21' E 114°07'0 0.0
2015-Aug-31 01:28N 22°21' E 114°07'0 0.0
2015-Aug-31 00:28N 22°21' E 114°07'0 0.0
2015-Aug-30 23:09N 22°21' E 114°07'0 0.0
2015-Aug-30 22:33N 22°21' E 114°07'0 0.0
2015-Aug-30 21:30N 22°21' E 114°07'0 0.0
2015-Aug-30 20:32N 22°21' E 114°07'0 0.0
2015-Aug-30 19:23N 22°21' E 114°07'0 0.0
2015-Aug-30 18:25N 22°21' E 114°07'0 0.0
2015-Aug-30 17:16N 22°21' E 114°07'0 0.0
2015-Aug-30 14:17N 22°21' E 114°07'0 0.0
2015-Aug-30 13:17N 22°21' E 114°07'1 0.5
2015-Aug-30 10:33N 22°19' E 114°07'2010.1
2015-Aug-30 08:33N 22°06' E 114°23'  
2015-Aug-24 07:33N 22°01' E 114°24'1413.1
2015-Aug-24 06:28N 22°10' E 114°12'1011.2
2015-Aug-24 05:33N 22°18' E 114°06'1211.7
2015-Aug-24 04:33N 22°23' E 113°54'5 4.1
2015-Aug-24 03:27N 22°27' E 113°54'0 0.0
2015-Aug-24 02:33N 22°27' E 113°54'0 0.0
2015-Aug-24 01:26N 22°27' E 113°54'4 0.7
2015-Aug-23 19:03N 22°23' E 113°54'812.0
2015-Aug-23 18:24N 22°21' E 114°02'3 3.5
2015-Aug-23 17:33N 22°19' E 114°05'0 0.0
2015-Aug-23 16:29N 22°19' E 114°05'0 0.1
2015-Aug-23 15:31N 22°19' E 114°05'1 1.3
2015-Aug-23 14:34N 22°19' E 114°06'2 1.3
2015-Aug-23 13:23N 22°19' E 114°08'0 0.0
2015-Aug-23 12:32N 22°19' E 114°08'0 0.0
2015-Aug-23 11:33N 22°19' E 114°08'0 0.0
2015-Aug-23 10:28N 22°19' E 114°08'0 0.0
2015-Aug-23 09:33N 22°19' E 114°08'0 0.0
2015-Aug-23 08:33N 22°19' E 114°08'0 0.0
2015-Aug-23 07:30N 22°19' E 114°08'0 0.0
2015-Aug-23 06:26N 22°19' E 114°08'0 0.0
2015-Aug-23 05:33N 22°19' E 114°08'0 0.0
2015-Aug-23 04:27N 22°19' E 114°08'0 0.0
2015-Aug-23 03:32N 22°19' E 114°08'0 0.0
2015-Aug-23 01:32N 22°19' E 114°08'21 6.9
2015-Aug-22 22:28N 22°11' E 114°28'  
Track history (hours):
 
Tides and Currents Weather Stations Pressure Air Temp Water Temp Dewpoint Dewpoint Depression Visibility Wind Speed Wind Dir Waves Ship Positions

Lorraine

Last reported at 2015-Sep-01 04:05 UTC. Time now 2015-Sep-02 14:55 UTC.
Position N 24°15' E 119°04'.

Length 221 m; draft 9 m.

Type: Ship. MMSI: 636012905.

Date/timePositionNaut miles runAvg speedWind from/ knotsBaromVisibWave heightAir tempDewpointWater temp
2015-Sep-01 04:05N 24°15' E 119°04'2613.1
2015-Sep-01 02:04N 23°58' E 118°42'25813.1
2015-Aug-31 06:27N 22°08' E 114°29'1512.4
2015-Aug-31 05:17N 22°08' E 114°13'1112.3
2015-Aug-31 04:25N 22°16' E 114°06'4 4.7
2015-Aug-31 03:29N 22°21' E 114°07'0 0.0
2015-Aug-31 01:28N 22°21' E 114°07'0 0.0
2015-Aug-31 00:28N 22°21' E 114°07'0 0.0
2015-Aug-30 23:09N 22°21' E 114°07'0 0.0
2015-Aug-30 22:33N 22°21' E 114°07'0 0.0
2015-Aug-30 21:30N 22°21' E 114°07'0 0.0
2015-Aug-30 20:32N 22°21' E 114°07'0 0.0
2015-Aug-30 19:23N 22°21' E 114°07'0 0.0
2015-Aug-30 18:25N 22°21' E 114°07'0 0.0
2015-Aug-30 17:16N 22°21' E 114°07'0 0.0
2015-Aug-30 14:17N 22°21' E 114°07'0 0.0
2015-Aug-30 13:17N 22°21' E 114°07'1 0.5
2015-Aug-30 10:33N 22°19' E 114°07'2010.1
2015-Aug-30 08:33N 22°06' E 114°23'  
2015-Aug-24 07:33N 22°01' E 114°24'1413.1
2015-Aug-24 06:28N 22°10' E 114°12'1011.2
2015-Aug-24 05:33N 22°18' E 114°06'1211.7
2015-Aug-24 04:33N 22°23' E 113°54'5 4.1
2015-Aug-24 03:27N 22°27' E 113°54'0 0.0
2015-Aug-24 02:33N 22°27' E 113°54'0 0.0
2015-Aug-24 01:26N 22°27' E 113°54'4 0.7
2015-Aug-23 19:03N 22°23' E 113°54'812.0
2015-Aug-23 18:24N 22°21' E 114°02'3 3.5
2015-Aug-23 17:33N 22°19' E 114°05'0 0.0
2015-Aug-23 16:29N 22°19' E 114°05'0 0.1
2015-Aug-23 15:31N 22°19' E 114°05'1 1.3
2015-Aug-23 14:34N 22°19' E 114°06'2 1.3
2015-Aug-23 13:23N 22°19' E 114°08'0 0.0
2015-Aug-23 12:32N 22°19' E 114°08'0 0.0
2015-Aug-23 11:33N 22°19' E 114°08'0 0.0
2015-Aug-23 10:28N 22°19' E 114°08'0 0.0
2015-Aug-23 09:33N 22°19' E 114°08'0 0.0
2015-Aug-23 08:33N 22°19' E 114°08'0 0.0
2015-Aug-23 07:30N 22°19' E 114°08'0 0.0
2015-Aug-23 06:26N 22°19' E 114°08'0 0.0
2015-Aug-23 05:33N 22°19' E 114°08'0 0.0
2015-Aug-23 04:27N 22°19' E 114°08'0 0.0
2015-Aug-23 03:32N 22°19' E 114°08'0 0.0
2015-Aug-23 01:32N 22°19' E 114°08'21 6.9
2015-Aug-22 22:28N 22°11' E 114°28'  

Dump ship's entire track history